WetterOnline ( http://www.wetteronline.de )

Wetter aktuell Messina

Aktuelles Wetter: Messina (51m)

6-stündlich | Neueste Meldungen
Ortszeit Temperatur Wetter
Fr, 25.05. 8:00 19.0° C wolkig
Fr, 25.05. 2:00 19.0° C wolkig
Do, 24.05. 20:00 20.0° C leicht bewölkt
Do, 24.05. 14:00 21.8° C wolkig
Do, 24.05. 8:00 17.8° C bewölkt
Do, 24.05. 2:00 19.0° C leicht bewölkt
Mi, 23.05. 20:00 20.0° C leicht bewölkt
Mi, 23.05. 14:00 21.2° C wolkig
Ortszeit Temperatur Wetter
Fr, 25.05. 12:00 21.8° C leicht bewölkt
Fr, 25.05. 11:55 22° C leicht bewölkt
Fr, 25.05. 11:00 21.2° C leicht bewölkt
Fr, 25.05. 10:55 21° C leicht bewölkt
Fr, 25.05. 10:00 20.6° C wolkig
Fr, 25.05. 9:55 21° C leicht bewölkt
Fr, 25.05. 9:00 19.8° C wolkig
Fr, 25.05. 8:55 20° C leicht bewölkt
Fr, 25.05. 8:00 19.0° C wolkig
Ortszeit Relative Feuchte Sichtweite
Fr, 25.05. 8:00 84% 10 km
Fr, 25.05. 2:00 87% 12 km
Do, 24.05. 20:00 81% 16 km
Do, 24.05. 14:00 72% 18 km
Do, 24.05. 8:00 87% 10 km
Do, 24.05. 2:00 85% 12 km
Mi, 23.05. 20:00 82% 10 km
Mi, 23.05. 14:00 71% 20 km
Ortszeit Relative Feuchte Sichtweite
Fr, 25.05. 12:00 71% 10 km
Fr, 25.05. 11:55 69% >10 km
Fr, 25.05. 11:00 74% 10 km
Fr, 25.05. 10:55 73% >10 km
Fr, 25.05. 10:00 78% 10 km
Fr, 25.05. 9:55 78% >10 km
Fr, 25.05. 9:00 79% 10 km
Fr, 25.05. 8:55 78% >10 km
Fr, 25.05. 8:00 84% 10 km
Ortszeit Niederschlagsmenge Niederschlagsart
Fr, 25.05. 8:00 0.0 l/m2 in 12 Std. -
Fr, 25.05. 2:00 0.0 l/m2 in 6 Std. -
Do, 24.05. 20:00 0.1 l/m2 in 12 Std. -
Do, 24.05. 14:00 0.1 l/m2 in 6 Std. Sprühregen
Do, 24.05. 8:00 1 l/m2 in 12 Std. Regen
Do, 24.05. 2:00 0.0 l/m2 in 6 Std. -
Mi, 23.05. 20:00 0.8 l/m2 in 12 Std. -
Mi, 23.05. 14:00 0.8 l/m2 in 6 Std. Regen
Ortszeit Niederschlagsmenge Niederschlagsart
Fr, 25.05. 12:00 keine Meldung -
Fr, 25.05. 11:55 keine Meldung -
Fr, 25.05. 11:00 keine Meldung -
Fr, 25.05. 10:55 keine Meldung -
Fr, 25.05. 10:00 keine Meldung -
Fr, 25.05. 9:55 keine Meldung -
Fr, 25.05. 9:00 keine Meldung -
Fr, 25.05. 8:55 keine Meldung -
Fr, 25.05. 8:00 keine Meldung -
Ortszeit Stärke Spitze Richtung
km/h Bft. km/h Grad Sektor
Fr, 25.05. 8:00 15 3 - 310° NW
Fr, 25.05. 2:00 13 3 - 40° NO
Do, 24.05. 20:00 4 1 - - -
Do, 24.05. 14:00 19 3 - 310° NW
Do, 24.05. 8:00 22 4 - 300° NW
Do, 24.05. 2:00 20 4 - 310° NW
Mi, 23.05. 20:00 26 4 - 310° NW
Mi, 23.05. 14:00 13 3 - 300° NW
Ortszeit Stärke Spitze Richtung
km/h Bft. km/h Grad Sektor
Fr, 25.05. 12:00 13 3 - 20° N
Fr, 25.05. 11:55 13 3 - 20° N
Fr, 25.05. 11:00 13 3 - 320° NW
Fr, 25.05. 10:55 13 3 - 320° NW
Fr, 25.05. 10:00 15 3 - 330° NW
Fr, 25.05. 9:55 15 3 - 330° NW
Fr, 25.05. 9:00 11 2 - 340° N
Fr, 25.05. 8:55 11 2 - 340° N
Fr, 25.05. 8:00 15 3 - 310° NW
Ortszeit Untergrenze Bedeckung Gattung
total tief tief mittel hoch
Fr, 25.05. 8:00 600 m 5/8 5/8 Sc - -
Fr, 25.05. 2:00 600 m 5/8 4/8 Sc As -
Do, 24.05. 20:00 750 m 3/8 3/8 Sc Ac -
Do, 24.05. 14:00 750 m 6/8 5/8 Sc Ac -
Do, 24.05. 8:00 300 m 7/8 6/8 Cu As -
Do, 24.05. 2:00 450 m 3/8 3/8 Sc - -
Mi, 23.05. 20:00 450 m 4/8 4/8 Sc - -
Mi, 23.05. 14:00 600 m 5/8 4/8 Sc As -
Ortszeit Bedeckungsgrad in Achtel und Wolkenuntergrenze
Fr, 25.05. 12:00 3(600m)
Fr, 25.05. 11:55 3-4(600m)
Fr, 25.05. 11:00 3(600m)
Fr, 25.05. 10:55 3-4(600m)
Fr, 25.05. 10:00 4(540m)
Fr, 25.05. 9:55 3-4(540m)
Fr, 25.05. 9:00 4(540m)
Fr, 25.05. 8:55 3-4(540m)
Fr, 25.05. 8:00 5(600m)
Ortszeit Luftdruck NN (hPa) Tendenz (hPa in 3 Std.)
Fr, 25.05. 8:00 1016 - 0,3
Fr, 25.05. 2:00 1016 - 0,5
Do, 24.05. 20:00 1016 - 0,4
Do, 24.05. 14:00 1017 + 0,4
Do, 24.05. 8:00 1017 + 0,3
Do, 24.05. 2:00 1017 + 0,1
Mi, 23.05. 20:00 1015 - 0,1
Mi, 23.05. 14:00 1015 + 0,6
Ortszeit Luftdruck NN (hPa) Tendenz (hPa in 3 Std.)
Fr, 25.05. 12:00 1016 0,0
Fr, 25.05. 11:55 1015 keine Meldung
Fr, 25.05. 11:00 1016 + 0,2
Fr, 25.05. 10:55 1015 keine Meldung
Fr, 25.05. 10:00 1016 + 0,2
Fr, 25.05. 9:55 1015 keine Meldung
Fr, 25.05. 9:00 1016 + 0,2
Fr, 25.05. 8:55 1015 keine Meldung
Fr, 25.05. 8:00 1016 - 0,3
Ortszeit Schneehöhe (cm)
Fr, 25.05. 8:00 -
Fr, 25.05. 2:00 -
Do, 24.05. 20:00 -
Do, 24.05. 14:00 -
Do, 24.05. 8:00 0
Do, 24.05. 2:00 -
Mi, 23.05. 20:00 -
Mi, 23.05. 14:00 -
Ortszeit Schneehöhe (cm)
Fr, 25.05. 12:00 -
Fr, 25.05. 11:55 -
Fr, 25.05. 11:00 -
Fr, 25.05. 10:55 -
Fr, 25.05. 10:00 -
Fr, 25.05. 9:55 -
Fr, 25.05. 9:00 -
Fr, 25.05. 8:55 -
Fr, 25.05. 8:00 -
Link zu dieser Seite / Seite empfehlen

Das Wetter in ...